createdAt,value
2023-03-03T00:01:27.731Z,4.95
2023-03-03T00:03:55.290Z,5.07
2023-03-03T00:06:22.432Z,7.97
2023-03-03T00:08:49.416Z,4.47
2023-03-03T00:11:16.889Z,4.95
2023-03-03T00:13:48.816Z,3.88
2023-03-03T00:16:41.217Z,2.53
2023-03-03T00:19:17.573Z,4.20
2023-03-03T00:21:51.313Z,2.55
2023-03-03T00:24:19.793Z,2.42
2023-03-03T00:26:49.700Z,6.75
2023-03-03T00:29:40.004Z,7.25
2023-03-03T00:32:13.207Z,10.02
2023-03-03T00:34:41.975Z,8.35
2023-03-03T00:37:35.869Z,9.05
2023-03-03T00:40:36.092Z,4.60
2023-03-03T00:43:19.309Z,4.43
2023-03-03T00:45:49.890Z,5.15
2023-03-03T00:48:21.743Z,6.93
2023-03-03T00:50:49.504Z,6.25
2023-03-03T00:53:19.255Z,5.85
2023-03-03T00:55:49.269Z,6.20
2023-03-03T00:58:18.078Z,3.85
2023-03-03T01:00:48.801Z,5.25
2023-03-03T01:03:26.122Z,5.63
2023-03-03T01:05:54.841Z,3.63
2023-03-03T01:08:22.598Z,2.70
2023-03-03T01:10:57.482Z,3.45
2023-03-03T01:15:58.538Z,3.80
2023-03-03T01:18:26.366Z,4.30
2023-03-03T01:20:53.352Z,3.28
2023-03-03T01:23:21.136Z,2.78
2023-03-03T01:25:48.418Z,12.05
2023-03-03T01:28:16.950Z,17.83
2023-03-03T01:30:44.076Z,16.55
2023-03-03T01:33:11.082Z,15.18
2023-03-03T01:35:38.190Z,8.55
2023-03-03T01:38:05.310Z,6.57
2023-03-03T01:40:33.069Z,9.80
2023-03-03T01:43:01.094Z,16.38
2023-03-03T01:46:03.150Z,9.48
2023-03-03T01:48:37.088Z,6.10
2023-03-03T01:51:09.976Z,2.60
2023-03-03T01:53:43.236Z,3.60
2023-03-03T01:56:10.648Z,3.03
2023-03-03T01:58:42.352Z,11.95
2023-03-03T02:01:14.796Z,5.03
2023-03-03T02:03:44.041Z,9.60
2023-03-03T02:06:15.169Z,3.22
2023-03-03T02:09:02.398Z,4.10
2023-03-03T02:11:32.916Z,3.70
2023-03-03T02:14:00.152Z,6.20
2023-03-03T02:16:27.575Z,6.45
2023-03-03T02:18:54.901Z,8.10
2023-03-03T02:21:24.288Z,7.35
2023-03-03T02:24:15.986Z,4.35
2023-03-03T02:26:45.728Z,6.57
2023-03-03T02:29:12.905Z,2.92
2023-03-03T02:31:41.850Z,3.08
2023-03-03T02:34:09.399Z,8.13
2023-03-03T02:36:38.826Z,5.50
2023-03-03T02:39:25.233Z,2.38
2023-03-03T02:42:13.975Z,3.50
2023-03-03T02:44:46.034Z,6.68
2023-03-03T02:47:13.213Z,6.25
2023-03-03T02:49:40.387Z,5.20
2023-03-03T02:52:12.497Z,6.65
2023-03-03T02:54:41.936Z,5.82
2023-03-03T02:57:09.319Z,6.25
2023-03-03T02:59:36.595Z,5.97
2023-03-03T03:02:16.600Z,6.32
2023-03-03T03:04:43.749Z,4.53
2023-03-03T03:07:16.068Z,8.27
2023-03-03T03:09:43.301Z,4.18
2023-03-03T03:12:10.395Z,4.30
2023-03-03T03:14:37.448Z,4.82
2023-03-03T03:17:06.062Z,2.50
2023-03-03T03:19:33.035Z,4.35
2023-03-03T03:22:02.629Z,5.75
2023-03-03T03:24:31.774Z,4.72
2023-03-03T03:27:03.571Z,3.40
2023-03-03T03:29:30.611Z,3.92
2023-03-03T03:31:57.676Z,3.58
2023-03-03T03:34:24.967Z,3.80
2023-03-03T03:36:53.802Z,3.60
2023-03-03T03:39:22.996Z,4.03
2023-03-03T03:41:51.857Z,4.05
2023-03-03T03:44:18.970Z,2.58
2023-03-03T03:46:46.011Z,3.35
2023-03-03T03:49:13.154Z,4.75
2023-03-03T03:51:42.184Z,5.40
2023-03-03T03:54:12.876Z,4.68
2023-03-03T03:56:40.668Z,3.72
2023-03-03T03:59:08.914Z,3.75
2023-03-03T04:01:36.894Z,3.05
2023-03-03T04:04:05.217Z,3.25
2023-03-03T04:06:32.563Z,4.72
2023-03-03T04:09:00.572Z,4.70
2023-03-03T04:11:29.548Z,2.45
2023-03-03T04:13:56.784Z,5.32
2023-03-03T04:16:24.028Z,12.40
2023-03-03T04:18:51.608Z,8.80
2023-03-03T04:21:19.708Z,7.00
2023-03-03T04:23:47.118Z,3.92
2023-03-03T04:26:14.475Z,3.38
2023-03-03T04:28:43.683Z,3.15
2023-03-03T04:31:11.016Z,3.50
2023-03-03T04:33:38.402Z,3.78
2023-03-03T04:36:06.605Z,5.63
2023-03-03T04:38:33.798Z,7.10
2023-03-03T04:41:01.183Z,4.53
2023-03-03T04:43:33.260Z,6.72
2023-03-03T04:46:01.889Z,2.65
2023-03-03T04:48:29.213Z,3.35
2023-03-03T04:50:56.797Z,2.40
2023-03-03T04:53:24.390Z,3.65
2023-03-03T04:55:53.234Z,3.42
2023-03-03T04:58:22.234Z,2.80
2023-03-03T05:00:57.647Z,3.83
2023-03-03T05:03:27.847Z,6.95
2023-03-03T05:05:54.901Z,1.50
2023-03-03T05:08:22.549Z,3.42
2023-03-03T05:10:54.193Z,3.17
2023-03-03T05:13:21.589Z,2.42
2023-03-03T05:15:53.060Z,1.52
2023-03-03T05:18:21.027Z,3.53
2023-03-03T05:20:48.809Z,3.63
2023-03-03T05:23:15.875Z,2.65
2023-03-03T05:25:42.971Z,2.45
2023-03-03T05:28:11.232Z,1.73
2023-03-03T05:30:38.631Z,1.27
2023-03-03T05:33:06.227Z,0.80
2023-03-03T05:35:33.739Z,4.95
2023-03-03T05:38:01.976Z,2.90
2023-03-03T05:40:30.083Z,2.05
2023-03-03T05:42:57.289Z,1.23
2023-03-03T05:45:25.004Z,0.80
2023-03-03T05:47:52.662Z,0.98
2023-03-03T05:50:21.998Z,3.17
2023-03-03T05:52:50.492Z,6.15
2023-03-03T05:55:18.504Z,2.15
2023-03-03T05:57:46.031Z,1.65
2023-03-03T06:00:14.698Z,2.60
2023-03-03T06:02:43.033Z,2.53
2023-03-03T06:05:11.918Z,1.58
2023-03-03T06:07:39.004Z,2.25
2023-03-03T06:10:07.714Z,5.13
2023-03-03T06:12:39.268Z,2.50
2023-03-03T06:15:07.615Z,2.65
2023-03-03T06:17:35.121Z,2.53
2023-03-03T06:20:03.525Z,1.75
2023-03-03T06:22:30.817Z,2.20
2023-03-03T06:24:57.988Z,3.20
2023-03-03T06:27:25.213Z,1.02
2023-03-03T06:29:52.526Z,1.35
2023-03-03T06:32:19.601Z,2.92
2023-03-03T06:34:46.756Z,5.22
2023-03-03T06:37:13.887Z,4.45
2023-03-03T06:39:40.993Z,3.67
2023-03-03T06:42:09.759Z,4.18
2023-03-03T06:44:36.900Z,2.85
2023-03-03T06:47:03.910Z,3.33
2023-03-03T06:49:31.097Z,2.58
2023-03-03T06:52:02.062Z,1.60
2023-03-03T06:54:31.036Z,2.63
2023-03-03T06:57:01.280Z,0.90
2023-03-03T06:59:29.049Z,2.47
2023-03-03T07:01:56.605Z,1.67
2023-03-03T07:04:31.803Z,5.07
2023-03-03T07:07:06.224Z,1.63
2023-03-03T07:09:33.394Z,4.30
2023-03-03T07:12:11.615Z,4.55
2023-03-03T07:14:44.451Z,6.95
2023-03-03T07:17:19.990Z,3.78
2023-03-03T07:19:48.319Z,4.93
2023-03-03T07:22:24.787Z,4.28
2023-03-03T07:24:57.997Z,2.35
2023-03-03T07:27:28.331Z,1.40
2023-03-03T07:30:16.902Z,4.30
2023-03-03T07:32:46.474Z,2.30
2023-03-03T07:35:30.253Z,1.83
2023-03-03T07:37:58.173Z,2.70
2023-03-03T07:40:35.084Z,4.30
2023-03-03T07:43:37.493Z,2.38
2023-03-03T07:46:11.384Z,2.30
2023-03-03T07:48:42.014Z,2.95
2023-03-03T07:51:29.360Z,4.07
2023-03-03T07:54:15.592Z,5.25
2023-03-03T07:56:42.866Z,1.75
2023-03-03T07:59:24.772Z,4.05
2023-03-03T08:01:56.750Z,2.15
2023-03-03T08:04:51.155Z,2.47
2023-03-03T08:07:20.393Z,1.80
2023-03-03T08:10:01.968Z,2.50
2023-03-03T08:12:36.752Z,2.60
2023-03-03T08:17:43.612Z,1.42
2023-03-03T08:20:43.208Z,1.75
2023-03-03T08:23:11.230Z,1.20
2023-03-03T08:25:39.520Z,2.60
2023-03-03T08:28:06.975Z,1.90
2023-03-03T08:30:34.450Z,1.73
2023-03-03T08:33:02.180Z,2.05
2023-03-03T08:35:29.752Z,2.00
2023-03-03T08:37:57.366Z,1.00
2023-03-03T08:40:24.877Z,1.60
2023-03-03T08:42:52.155Z,1.27
2023-03-03T08:45:19.522Z,1.17
2023-03-03T08:47:46.843Z,1.05
2023-03-03T08:50:14.859Z,1.17
2023-03-03T08:52:42.176Z,1.80
2023-03-03T08:55:10.267Z,1.50
2023-03-03T08:57:39.297Z,1.02
2023-03-03T09:00:09.517Z,1.23
2023-03-03T09:02:37.062Z,1.50
2023-03-03T09:05:05.696Z,1.25
2023-03-03T09:07:33.452Z,1.55
2023-03-03T09:10:02.602Z,1.20
2023-03-03T09:12:34.585Z,1.00
2023-03-03T09:15:24.704Z,1.33
2023-03-03T09:17:52.810Z,1.23
2023-03-03T09:20:31.050Z,1.67
2023-03-03T09:22:59.125Z,1.10
2023-03-03T09:25:34.062Z,1.40
2023-03-03T09:30:37.362Z,2.63
2023-03-03T09:35:48.908Z,1.45
2023-03-03T09:38:33.257Z,2.05
2023-03-03T09:41:37.127Z,1.80
2023-03-03T09:44:30.231Z,1.60
2023-03-03T09:47:05.432Z,1.73
2023-03-03T09:49:35.485Z,1.48
2023-03-03T09:52:13.279Z,1.50
2023-03-03T09:54:40.375Z,1.60
2023-03-03T09:57:42.604Z,1.80
2023-03-03T10:00:25.011Z,1.65
2023-03-03T10:03:15.898Z,1.63
2023-03-03T10:06:10.605Z,1.88
2023-03-03T10:09:11.741Z,1.55
2023-03-03T10:11:50.663Z,1.52
2023-03-03T10:14:36.412Z,2.70
2023-03-03T10:17:26.791Z,1.67
2023-03-03T10:20:20.683Z,1.65
2023-03-03T10:23:08.224Z,1.65
2023-03-03T10:25:59.494Z,1.27
2023-03-03T10:29:04.558Z,1.67
2023-03-03T10:31:53.084Z,1.27
2023-03-03T10:34:55.271Z,1.70
2023-03-03T10:38:00.454Z,1.70
2023-03-03T10:40:50.325Z,1.50
2023-03-03T10:43:31.811Z,1.73
2023-03-03T10:46:18.443Z,1.90
2023-03-03T10:49:10.382Z,1.98
2023-03-03T10:52:02.855Z,2.17
2023-03-03T10:55:17.440Z,2.17
2023-03-03T10:58:06.539Z,1.70
2023-03-03T11:00:48.480Z,1.50
2023-03-03T11:03:30.702Z,4.90
2023-03-03T11:06:15.647Z,2.03
2023-03-03T11:09:16.840Z,1.90
2023-03-03T11:12:02.288Z,2.15
2023-03-03T11:14:34.914Z,1.27
2023-03-03T11:17:08.494Z,1.13
2023-03-03T11:20:00.794Z,1.25
2023-03-03T11:22:40.843Z,1.20
2023-03-03T11:25:16.989Z,2.58
2023-03-03T11:27:56.117Z,1.77
2023-03-03T11:31:01.927Z,1.50
2023-03-03T11:33:45.257Z,1.40
2023-03-03T11:36:37.325Z,1.40
2023-03-03T11:39:16.853Z,1.00
2023-03-03T11:42:33.208Z,1.20
2023-03-03T11:47:51.671Z,1.25
2023-03-03T11:50:26.212Z,1.05
2023-03-03T11:53:19.550Z,1.02
2023-03-03T11:55:56.990Z,1.10
2023-03-03T11:58:50.371Z,0.90
2023-03-03T12:01:28.502Z,1.30
2023-03-03T12:03:58.329Z,1.05
2023-03-03T12:06:40.915Z,1.30
2023-03-03T12:09:43.010Z,1.23
2023-03-03T12:12:20.618Z,0.90
2023-03-03T12:15:03.022Z,0.93
2023-03-03T12:18:15.513Z,1.48
2023-03-03T12:21:01.187Z,1.20
2023-03-03T12:23:53.326Z,1.42
2023-03-03T12:26:32.946Z,1.02
2023-03-03T12:29:14.371Z,1.80
2023-03-03T12:32:05.963Z,1.10
2023-03-03T12:34:56.224Z,1.20
2023-03-03T12:37:28.528Z,1.20
2023-03-03T12:40:09.562Z,1.05
2023-03-03T12:43:06.185Z,1.00
2023-03-03T12:45:42.384Z,1.10
2023-03-03T12:48:21.850Z,1.20
2023-03-03T12:51:11.674Z,1.27
2023-03-03T12:54:06.595Z,1.30
2023-03-03T12:56:40.037Z,1.17
2023-03-03T12:59:15.563Z,0.80
2023-03-03T13:02:06.584Z,1.02
2023-03-03T13:04:46.262Z,1.10
2023-03-03T13:07:23.854Z,0.80
2023-03-03T13:10:18.482Z,0.82
2023-03-03T13:12:57.428Z,0.82
2023-03-03T13:15:37.655Z,1.15
2023-03-03T13:18:25.005Z,1.17
2023-03-03T13:21:13.857Z,1.08
2023-03-03T13:23:54.842Z,1.23
2023-03-03T13:26:40.828Z,1.40
2023-03-03T13:29:33.715Z,1.63
2023-03-03T13:32:09.004Z,1.25
2023-03-03T13:34:47.969Z,1.45
2023-03-03T13:37:25.045Z,1.30
2023-03-03T13:40:00.332Z,1.10
2023-03-03T13:42:30.369Z,1.90
2023-03-03T13:44:57.937Z,1.60
2023-03-03T13:47:53.396Z,1.13
2023-03-03T13:50:29.006Z,1.40
2023-03-03T13:53:02.791Z,1.40
2023-03-03T13:55:35.160Z,1.20
2023-03-03T13:58:02.167Z,1.42
2023-03-03T14:00:43.479Z,1.55
2023-03-03T14:03:34.995Z,1.80
2023-03-03T14:06:27.420Z,1.02
2023-03-03T14:09:27.387Z,1.70
2023-03-03T14:12:22.927Z,1.75
2023-03-03T14:17:49.740Z,1.90
2023-03-03T14:20:24.608Z,1.23
2023-03-03T14:25:26.135Z,2.75
2023-03-03T14:28:14.194Z,1.70
2023-03-03T14:30:43.925Z,2.20
2023-03-03T14:33:11.098Z,1.77
2023-03-03T14:35:38.326Z,1.42
2023-03-03T14:38:23.714Z,1.92
2023-03-03T14:41:11.648Z,1.65
2023-03-03T14:43:44.339Z,1.83
2023-03-03T14:46:33.657Z,1.42
2023-03-03T14:49:05.668Z,1.60
2023-03-03T14:51:43.658Z,1.65
2023-03-03T14:54:21.367Z,1.80
2023-03-03T14:56:56.378Z,1.70
2023-03-03T14:59:27.018Z,3.17
2023-03-03T15:02:18.420Z,2.40
2023-03-03T15:04:46.585Z,2.88
2023-03-03T15:07:35.887Z,3.13
2023-03-03T15:10:05.102Z,2.88
2023-03-03T15:12:40.978Z,2.50
2023-03-03T15:15:22.990Z,3.65
2023-03-03T15:17:49.904Z,2.22
2023-03-03T15:20:32.705Z,2.15
2023-03-03T15:23:34.752Z,2.53
2023-03-03T15:26:22.356Z,2.13
2023-03-03T15:28:55.648Z,4.80
2023-03-03T15:31:30.379Z,3.47
2023-03-03T15:34:18.972Z,3.05
2023-03-03T15:36:58.468Z,2.85
2023-03-03T15:39:58.371Z,4.32
2023-03-03T15:42:48.142Z,2.78
2023-03-03T15:45:42.810Z,2.90
2023-03-03T15:48:37.561Z,2.95
2023-03-03T15:51:16.534Z,2.20
2023-03-03T15:54:23.043Z,2.40
2023-03-03T15:56:58.512Z,3.63
2023-03-03T15:59:53.044Z,3.63
2023-03-03T16:02:28.424Z,2.75
2023-03-03T16:04:58.757Z,3.47
2023-03-03T16:07:37.411Z,5.75
2023-03-03T16:10:38.402Z,4.85
2023-03-03T16:13:08.070Z,2.55
2023-03-03T16:15:43.990Z,3.30
2023-03-03T16:18:16.679Z,10.30
2023-03-03T16:20:58.651Z,4.78
2023-03-03T16:23:48.238Z,3.50
2023-03-03T16:26:37.253Z,3.58
2023-03-03T16:29:38.356Z,3.30
2023-03-03T16:32:44.536Z,3.25
2023-03-03T16:35:23.753Z,3.78
2023-03-03T16:37:59.805Z,2.80
2023-03-03T16:40:30.234Z,5.25
2023-03-03T16:43:06.533Z,3.70
2023-03-03T16:45:39.401Z,3.47
2023-03-03T16:48:15.499Z,3.97
2023-03-03T16:51:04.779Z,3.58
2023-03-03T16:53:50.693Z,3.83
2023-03-03T16:56:28.491Z,3.33
2023-03-03T16:59:17.004Z,4.45
2023-03-03T17:01:49.982Z,6.05
2023-03-03T17:04:45.072Z,4.72
2023-03-03T17:07:26.911Z,11.95
2023-03-03T17:10:25.931Z,5.32
2023-03-03T17:13:07.510Z,3.92
2023-03-03T17:15:51.218Z,4.38
2023-03-03T17:18:38.917Z,5.78
2023-03-03T17:21:32.490Z,4.07
2023-03-03T17:24:05.468Z,3.50
2023-03-03T17:27:01.304Z,2.55
2023-03-03T17:29:43.561Z,3.83
2023-03-03T17:32:13.660Z,3.80
2023-03-03T17:35:08.240Z,5.43
2023-03-03T17:37:44.429Z,13.05
2023-03-03T17:40:29.711Z,6.40
2023-03-03T17:43:11.657Z,4.93
2023-03-03T17:45:43.613Z,5.07
2023-03-03T17:48:48.942Z,11.35
2023-03-03T17:51:31.381Z,2.53
2023-03-03T17:54:20.213Z,3.92
2023-03-03T17:57:09.093Z,3.30
2023-03-03T17:59:57.295Z,3.03
2023-03-03T18:02:27.117Z,3.25
2023-03-03T18:05:15.254Z,3.63
2023-03-03T18:07:48.027Z,5.55
2023-03-03T18:10:38.918Z,3.80
2023-03-03T18:13:30.644Z,5.47
2023-03-03T18:16:18.176Z,3.45
2023-03-03T18:19:16.252Z,2.90
2023-03-03T18:21:49.404Z,10.65
2023-03-03T18:24:30.310Z,5.03
2023-03-03T18:27:27.758Z,4.28
2023-03-03T18:30:33.064Z,4.13
2023-03-03T18:33:13.874Z,6.97
2023-03-03T18:35:46.281Z,4.47
2023-03-03T18:38:16.567Z,3.63
2023-03-03T18:41:12.526Z,3.70
2023-03-03T18:43:45.630Z,6.57
2023-03-03T18:46:24.593Z,4.00
2023-03-03T18:49:05.053Z,3.70
2023-03-03T18:51:37.812Z,4.50
2023-03-03T18:54:22.291Z,3.63
2023-03-03T18:56:58.042Z,4.30
2023-03-03T18:59:34.245Z,5.25
2023-03-03T19:02:13.437Z,3.70
2023-03-03T19:05:10.254Z,3.13
2023-03-03T19:07:40.250Z,4.13
2023-03-03T19:10:19.420Z,3.88
2023-03-03T19:12:59.579Z,3.55
2023-03-03T19:15:34.843Z,3.08
2023-03-03T19:18:14.726Z,3.22
2023-03-03T19:20:48.594Z,3.95
2023-03-03T19:23:19.716Z,3.50
2023-03-03T19:25:46.729Z,3.63
2023-03-03T19:28:17.583Z,13.60
2023-03-03T19:31:06.321Z,7.70
2023-03-03T19:33:58.967Z,7.10
2023-03-03T19:36:54.290Z,4.13
2023-03-03T19:39:33.617Z,5.40
2023-03-03T19:42:22.906Z,8.57
2023-03-03T19:45:29.397Z,3.78
2023-03-03T19:48:11.366Z,4.07
2023-03-03T19:50:53.448Z,4.65
2023-03-03T19:53:30.435Z,4.53
2023-03-03T19:56:19.835Z,3.70
2023-03-03T19:58:51.649Z,3.60
2023-03-03T20:01:30.209Z,4.28
2023-03-03T20:03:58.477Z,8.48
2023-03-03T20:06:34.662Z,5.82
2023-03-03T20:09:23.016Z,4.30
2023-03-03T20:12:15.499Z,5.00
2023-03-03T20:14:57.946Z,4.90
2023-03-03T20:17:31.051Z,2.55
2023-03-03T20:20:01.105Z,3.25
2023-03-03T20:22:34.494Z,1.95
2023-03-03T20:25:09.192Z,4.22
2023-03-03T20:27:47.620Z,2.90
2023-03-03T20:30:25.334Z,2.20
2023-03-03T20:33:04.317Z,2.80
2023-03-03T20:35:46.480Z,2.75
2023-03-03T20:38:55.057Z,4.75
2023-03-03T20:41:30.795Z,2.22
2023-03-03T20:44:09.946Z,2.33
2023-03-03T20:47:24.653Z,3.10
2023-03-03T20:50:18.035Z,3.65
2023-03-03T20:53:07.757Z,1.90
2023-03-03T20:56:09.328Z,2.65
2023-03-03T20:58:57.976Z,5.72
2023-03-03T21:01:37.772Z,19.90
2023-03-03T21:04:18.543Z,6.28
2023-03-03T21:06:45.780Z,14.80
2023-03-03T21:09:27.002Z,4.85
2023-03-03T21:11:54.598Z,16.90
2023-03-03T21:14:30.610Z,4.35
2023-03-03T21:17:02.908Z,4.97
2023-03-03T21:19:35.147Z,10.38
2023-03-03T21:22:03.610Z,6.18
2023-03-03T21:24:56.523Z,6.88
2023-03-03T21:27:26.130Z,6.65
2023-03-03T21:30:13.747Z,6.63
2023-03-03T21:32:46.429Z,11.55
2023-03-03T21:35:16.643Z,23.33
2023-03-03T21:37:50.273Z,34.90
2023-03-03T21:40:29.336Z,23.95
2023-03-03T21:42:59.111Z,11.68
2023-03-03T21:45:27.208Z,10.10
2023-03-03T21:48:00.217Z,7.25
2023-03-03T21:50:32.868Z,13.63
2023-03-03T21:53:00.100Z,9.80
2023-03-03T21:55:27.070Z,11.05
2023-03-03T21:57:54.122Z,15.13
2023-03-03T22:00:21.697Z,11.93
2023-03-03T22:02:48.821Z,11.85
2023-03-03T22:05:16.184Z,10.90
2023-03-03T22:07:43.237Z,9.88
2023-03-03T22:10:11.298Z,5.38
2023-03-03T22:12:38.464Z,2.63
2023-03-03T22:15:06.113Z,4.72
2023-03-03T22:17:33.232Z,7.30
2023-03-03T22:20:00.389Z,7.68
2023-03-03T22:22:27.634Z,4.80
2023-03-03T22:24:54.780Z,2.33
2023-03-03T22:27:22.007Z,2.08
2023-03-03T22:29:49.204Z,2.50
2023-03-03T22:32:16.464Z,4.13
2023-03-03T22:34:43.841Z,7.78
2023-03-03T22:37:11.060Z,6.72
2023-03-03T22:39:38.244Z,5.13
2023-03-03T22:42:05.547Z,5.32
2023-03-03T22:44:32.693Z,4.82
2023-03-03T22:47:00.003Z,5.10
2023-03-03T22:49:27.119Z,4.15
2023-03-03T22:51:54.281Z,5.38
2023-03-03T22:54:21.310Z,7.55
2023-03-03T22:56:48.617Z,4.30
2023-03-03T22:59:15.785Z,4.03
2023-03-03T23:01:43.018Z,4.75
2023-03-03T23:04:10.234Z,6.15
2023-03-03T23:06:37.394Z,7.10
2023-03-03T23:09:08.221Z,4.85
2023-03-03T23:11:35.489Z,2.92
2023-03-03T23:14:02.682Z,4.78
2023-03-03T23:16:29.863Z,3.33
2023-03-03T23:18:56.993Z,5.28
2023-03-03T23:21:24.047Z,3.75
2023-03-03T23:23:51.125Z,3.05
2023-03-03T23:26:18.255Z,4.07
2023-03-03T23:28:45.374Z,5.55
2023-03-03T23:31:38.167Z,5.20
2023-03-03T23:34:05.530Z,3.97
2023-03-03T23:36:32.621Z,4.10
2023-03-03T23:38:59.795Z,2.25
2023-03-03T23:41:27.064Z,2.58
2023-03-03T23:43:54.273Z,3.83
2023-03-03T23:46:21.527Z,5.15
2023-03-03T23:48:48.740Z,4.68
2023-03-03T23:51:15.898Z,3.15
2023-03-03T23:53:42.997Z,3.08
2023-03-03T23:56:10.074Z,4.55
2023-03-03T23:58:37.243Z,3.15
